Terminal Aerodrome Forecast
Issued by NWS Charleston, SC

Home | Current Version | Previous Version | Text Only | Print | Product List | Glossary On
Versions: 1 2 3 4 5 6 7 8 9 10 11 12 13 14
005
FTUS42 KCHS 101720
TAFSAV
TAF
KSAV 101720Z 1018/1118 04005KT P6SM SKC
     FM111100 06005KT P6SM FEW010 SCT025=

USA.gov is the U.S. government's official web portal to all federal, state and local government web resources and services.